createdAt,value
2018-12-03T00:00:15.578Z,9.13
2018-12-03T00:02:42.756Z,7.47
2018-12-03T00:05:09.945Z,8.30
2018-12-03T00:07:37.120Z,8.87
2018-12-03T00:10:04.914Z,7.80
2018-12-03T00:12:33.240Z,9.37
2018-12-03T00:15:00.396Z,10.63
2018-12-03T00:17:29.692Z,7.80
2018-12-03T00:19:56.930Z,6.70
2018-12-03T00:22:24.167Z,6.90
2018-12-03T00:24:51.290Z,6.10
2018-12-03T00:27:18.491Z,6.57
2018-12-03T00:29:45.710Z,5.20
2018-12-03T00:32:12.966Z,4.53
2018-12-03T00:34:42.251Z,4.60
2018-12-03T00:37:09.485Z,4.80
2018-12-03T00:39:36.734Z,5.90
2018-12-03T00:42:04.022Z,4.23
2018-12-03T00:44:31.225Z,4.00
2018-12-03T00:46:58.433Z,5.00
2018-12-03T00:49:25.790Z,3.93
2018-12-03T00:51:52.919Z,3.80
2018-12-03T00:54:22.181Z,4.17
2018-12-03T00:56:49.620Z,4.73
2018-12-03T00:59:17.836Z,5.10
2018-12-03T01:01:45.036Z,4.27
2018-12-03T01:04:12.205Z,3.40
2018-12-03T01:06:39.376Z,4.97
2018-12-03T01:09:08.095Z,4.23
2018-12-03T01:11:35.692Z,3.87
2018-12-03T01:14:02.897Z,3.40
2018-12-03T01:16:30.075Z,3.30
2018-12-03T01:18:57.175Z,4.03
2018-12-03T01:21:24.371Z,3.47
2018-12-03T01:23:51.446Z,5.83
2018-12-03T01:26:18.731Z,3.80
2018-12-03T01:28:45.964Z,4.17
2018-12-03T01:31:13.089Z,3.50
2018-12-03T01:33:40.257Z,3.37
2018-12-03T01:36:07.428Z,5.00
2018-12-03T01:38:34.650Z,3.40
2018-12-03T01:41:01.973Z,3.60
2018-12-03T01:43:29.179Z,3.40
2018-12-03T01:45:56.324Z,3.30
2018-12-03T01:48:23.422Z,3.80
2018-12-03T01:50:50.523Z,3.60
2018-12-03T01:53:17.890Z,3.40
2018-12-03T01:55:45.130Z,3.70
2018-12-03T01:58:12.348Z,3.60
2018-12-03T02:00:39.551Z,4.03
2018-12-03T02:03:06.789Z,3.40
2018-12-03T02:06:39.550Z,3.50
2018-12-03T02:09:08.127Z,3.10
2018-12-03T02:11:35.318Z,4.60
2018-12-03T02:14:02.575Z,4.40
2018-12-03T02:16:29.813Z,3.60
2018-12-03T02:18:57.063Z,4.93
2018-12-03T02:21:24.280Z,3.30
2018-12-03T02:23:51.521Z,3.70
2018-12-03T02:26:18.938Z,3.77
2018-12-03T02:28:47.026Z,3.80
2018-12-03T02:31:14.366Z,4.00
2018-12-03T02:33:45.125Z,3.97
2018-12-03T02:36:12.410Z,6.07
2018-12-03T02:38:40.879Z,5.17
2018-12-03T02:41:11.019Z,4.17
2018-12-03T02:43:38.228Z,3.70
2018-12-03T02:46:05.442Z,4.40
2018-12-03T02:48:32.645Z,4.80
2018-12-03T02:50:59.795Z,4.70
2018-12-03T02:53:26.902Z,6.00
2018-12-03T02:55:55.184Z,5.60
2018-12-03T02:58:22.491Z,4.90
2018-12-03T03:00:49.857Z,4.70
2018-12-03T03:03:17.146Z,5.40
2018-12-03T03:05:45.386Z,4.63
2018-12-03T03:08:12.552Z,5.33
2018-12-03T03:10:40.776Z,4.40
2018-12-03T03:13:07.957Z,6.10
2018-12-03T03:15:35.139Z,4.43
2018-12-03T03:18:02.357Z,6.57
2018-12-03T03:20:29.576Z,4.23
2018-12-03T03:22:56.712Z,4.13
2018-12-03T03:25:23.999Z,4.87
2018-12-03T03:27:51.319Z,4.20
2018-12-03T03:30:18.589Z,3.63
2018-12-03T03:32:45.854Z,4.93
2018-12-03T03:35:13.581Z,3.70
2018-12-03T03:37:41.890Z,3.40
2018-12-03T03:40:12.304Z,4.50
2018-12-03T03:42:39.574Z,5.90
2018-12-03T03:45:10.259Z,3.70
2018-12-03T03:47:37.566Z,4.00
2018-12-03T03:50:05.638Z,3.30
2018-12-03T03:52:33.982Z,3.50
2018-12-03T03:55:01.134Z,3.33
2018-12-03T03:57:31.928Z,3.60
2018-12-03T03:59:59.093Z,5.00
2018-12-03T04:02:26.344Z,4.10
2018-12-03T04:04:53.527Z,4.53
2018-12-03T04:07:20.776Z,5.47
2018-12-03T04:09:50.108Z,5.90
2018-12-03T04:12:17.238Z,5.90
2018-12-03T04:14:44.364Z,6.70
2018-12-03T04:17:11.590Z,5.63
2018-12-03T04:19:44.499Z,6.10
2018-12-03T04:22:11.755Z,7.63
2018-12-03T04:24:39.026Z,5.70
2018-12-03T04:27:06.272Z,8.53
2018-12-03T04:29:33.409Z,6.60
2018-12-03T04:32:01.204Z,6.53
2018-12-03T04:34:28.349Z,7.47
2018-12-03T04:36:55.562Z,6.30
2018-12-03T04:39:22.785Z,8.60
2018-12-03T04:41:52.129Z,7.13
2018-12-03T04:44:19.325Z,8.60
2018-12-03T04:46:46.669Z,11.10
2018-12-03T04:49:13.882Z,10.37
2018-12-03T04:51:41.205Z,10.37
2018-12-03T04:54:08.353Z,12.30
2018-12-03T04:56:35.604Z,11.77
2018-12-03T04:59:02.794Z,13.07
2018-12-03T05:01:30.039Z,12.10
2018-12-03T05:04:00.678Z,11.80
2018-12-03T05:06:30.748Z,11.00
2018-12-03T05:08:58.033Z,13.73
2018-12-03T05:11:32.650Z,13.73
2018-12-03T05:14:01.221Z,14.23
2018-12-03T05:16:32.470Z,13.27
2018-12-03T05:19:05.046Z,14.77
2018-12-03T05:21:32.273Z,14.73
2018-12-03T05:24:04.340Z,17.53
2018-12-03T05:26:26.722Z,14.37
2018-12-03T05:28:54.079Z,11.80
2018-12-03T05:31:21.347Z,12.43
2018-12-03T05:33:48.558Z,11.70
2018-12-03T05:36:16.046Z,8.50
2018-12-03T05:38:50.156Z,9.13
2018-12-03T05:41:21.048Z,6.83
2018-12-03T05:43:48.234Z,6.80
2018-12-03T05:46:15.457Z,7.83
2018-12-03T05:48:42.660Z,8.07
2018-12-03T05:51:09.886Z,5.50
2018-12-03T05:53:41.736Z,4.97
2018-12-03T05:56:08.921Z,5.00
2018-12-03T05:58:36.312Z,5.73
2018-12-03T06:01:04.096Z,4.67
2018-12-03T06:03:31.354Z,5.20
2018-12-03T06:06:03.655Z,4.37
2018-12-03T06:08:30.964Z,4.10
2018-12-03T06:11:00.267Z,4.40
2018-12-03T06:13:27.771Z,6.10
2018-12-03T06:15:56.142Z,4.13
2018-12-03T06:18:23.404Z,6.33
2018-12-03T06:20:51.665Z,5.60
2018-12-03T06:23:18.799Z,4.80
2018-12-03T06:25:46.031Z,5.93
2018-12-03T06:28:13.162Z,5.87
2018-12-03T06:30:40.693Z,6.07
2018-12-03T06:33:08.159Z,8.23
2018-12-03T06:35:35.483Z,9.37
2018-12-03T06:38:02.804Z,10.03
2018-12-03T06:40:30.755Z,10.17
2018-12-03T06:42:57.957Z,9.50
2018-12-03T06:45:25.797Z,9.10
2018-12-03T06:48:05.670Z,10.17
2018-12-03T06:50:32.949Z,9.53
2018-12-03T06:53:00.174Z,11.93
2018-12-03T06:55:28.150Z,9.93
2018-12-03T06:57:55.382Z,10.07
2018-12-03T07:00:23.623Z,9.70
2018-12-03T07:02:50.816Z,9.07
2018-12-03T07:05:18.051Z,8.70
2018-12-03T07:07:46.629Z,7.20
2018-12-03T07:10:18.834Z,8.47
2018-12-03T07:12:49.154Z,9.20
2018-12-03T07:15:17.906Z,6.40
2018-12-03T07:17:45.279Z,5.67
2018-12-03T07:20:13.056Z,6.13
2018-12-03T07:22:40.498Z,5.87
2018-12-03T07:25:09.741Z,7.03
2018-12-03T07:27:37.093Z,6.23
2018-12-03T07:30:14.629Z,5.10
2018-12-03T07:32:41.972Z,4.77
2018-12-03T07:35:09.242Z,4.60
2018-12-03T07:37:36.608Z,4.50
2018-12-03T07:40:04.812Z,6.77
2018-12-03T07:42:32.215Z,5.20
2018-12-03T07:44:59.582Z,5.63
2018-12-03T07:47:27.194Z,6.40
2018-12-03T07:49:54.492Z,6.37
2018-12-03T07:52:22.805Z,6.67
2018-12-03T07:54:49.990Z,5.27
2018-12-03T07:57:17.198Z,5.90
2018-12-03T07:59:45.696Z,5.83
2018-12-03T08:02:12.934Z,6.33
2018-12-03T08:04:40.325Z,5.80
2018-12-03T08:07:07.657Z,6.40
2018-12-03T08:09:34.802Z,7.10
2018-12-03T08:12:01.970Z,5.17
2018-12-03T08:14:29.144Z,7.83
2018-12-03T08:16:56.312Z,7.20
2018-12-03T08:19:23.608Z,6.40
2018-12-03T08:21:50.864Z,6.63
2018-12-03T08:24:18.184Z,9.33
2018-12-03T08:26:45.551Z,6.70
2018-12-03T08:29:12.779Z,6.90
2018-12-03T08:31:39.947Z,5.50
2018-12-03T08:34:07.098Z,6.43
2018-12-03T08:36:34.406Z,5.87
2018-12-03T08:39:01.653Z,5.47
2018-12-03T08:41:28.876Z,11.23
2018-12-03T08:43:56.084Z,7.43
2018-12-03T08:46:23.969Z,6.10
2018-12-03T08:48:51.320Z,6.63
2018-12-03T08:51:18.627Z,9.10
2018-12-03T08:53:47.126Z,6.20
2018-12-03T08:56:15.391Z,6.77
2018-12-03T08:58:42.641Z,6.53
2018-12-03T09:01:13.017Z,7.90
2018-12-03T09:03:43.161Z,6.70
2018-12-03T09:06:11.967Z,6.40
2018-12-03T09:08:42.367Z,6.90
2018-12-03T09:11:10.977Z,7.47
2018-12-03T09:13:38.152Z,6.47
2018-12-03T09:16:06.434Z,6.40
2018-12-03T09:18:34.945Z,9.93
2018-12-03T09:21:06.008Z,8.47
2018-12-03T09:23:33.274Z,11.67
2018-12-03T09:26:00.553Z,6.30
2018-12-03T09:28:28.250Z,6.27
2018-12-03T09:30:55.465Z,9.13
2018-12-03T09:33:22.800Z,6.00
2018-12-03T09:35:50.120Z,6.53
2018-12-03T09:38:17.298Z,6.47
2018-12-03T09:40:44.620Z,7.50
2018-12-03T09:43:11.993Z,5.87
2018-12-03T09:45:39.288Z,5.53
2018-12-03T09:48:06.601Z,5.30
2018-12-03T09:50:33.878Z,8.50
2018-12-03T09:53:05.734Z,9.30
2018-12-03T09:55:33.392Z,6.90
2018-12-03T09:58:04.346Z,8.23
2018-12-03T10:00:33.879Z,6.40
2018-12-03T10:03:05.585Z,7.00
2018-12-03T10:05:39.349Z,8.10
2018-12-03T10:08:06.765Z,7.93
2018-12-03T10:10:34.044Z,7.40
2018-12-03T10:13:05.287Z,8.43
2018-12-03T10:15:32.824Z,8.53
2018-12-03T10:18:00.282Z,6.47
2018-12-03T10:20:27.703Z,7.30
2018-12-03T10:22:54.998Z,8.03
2018-12-03T10:25:23.118Z,7.10
2018-12-03T10:27:50.361Z,9.83
2018-12-03T10:30:19.827Z,7.70
2018-12-03T10:32:52.208Z,8.40
2018-12-03T10:35:20.006Z,8.10
2018-12-03T10:37:47.601Z,7.53
2018-12-03T10:40:19.347Z,8.97
2018-12-03T10:42:48.137Z,6.53
2018-12-03T10:45:25.995Z,7.97
2018-12-03T10:47:47.558Z,9.80
2018-12-03T10:50:22.326Z,8.43
2018-12-03T10:52:48.193Z,5.80
2018-12-03T10:55:15.426Z,6.53
2018-12-03T10:57:43.899Z,6.67
2018-12-03T11:00:17.314Z,6.03
2018-12-03T11:02:51.638Z,7.03
2018-12-03T11:05:26.237Z,5.87
2018-12-03T11:07:53.542Z,7.43
2018-12-03T11:10:20.791Z,6.60
2018-12-03T11:12:50.483Z,5.17
2018-12-03T11:15:19.790Z,5.37
2018-12-03T11:17:47.076Z,7.83
2018-12-03T11:20:14.324Z,8.23
2018-12-03T11:22:43.419Z,5.23
2018-12-03T11:25:13.082Z,4.20
2018-12-03T11:27:42.673Z,5.77
2018-12-03T11:30:11.183Z,4.73
2018-12-03T11:32:38.452Z,4.37
2018-12-03T11:35:08.822Z,5.10
2018-12-03T11:37:36.830Z,4.30
2018-12-03T11:40:14.867Z,5.20
2018-12-03T11:42:42.107Z,5.80
2018-12-03T11:45:10.114Z,4.97
2018-12-03T11:47:39.490Z,5.20
2018-12-03T11:50:09.771Z,6.63
2018-12-03T11:52:37.022Z,6.90
2018-12-03T11:55:04.725Z,4.07
2018-12-03T11:57:32.064Z,6.27
2018-12-03T11:59:59.883Z,7.47
2018-12-03T12:02:27.191Z,4.50
2018-12-03T12:04:54.552Z,3.60
2018-12-03T12:07:21.899Z,4.47
2018-12-03T12:09:49.185Z,5.13
2018-12-03T12:12:16.620Z,3.60
2018-12-03T12:14:43.927Z,4.30
2018-12-03T12:17:11.132Z,3.80
2018-12-03T12:19:41.175Z,4.30
2018-12-03T12:22:08.466Z,3.80
2018-12-03T12:24:36.819Z,4.40
2018-12-03T12:27:47.302Z,3.73
2018-12-03T12:30:14.687Z,3.57
2018-12-03T12:32:41.007Z,3.30
2018-12-03T12:35:07.342Z,4.97
2018-12-03T12:37:33.434Z,4.83
2018-12-03T12:39:59.718Z,3.90
2018-12-03T12:42:31.803Z,3.50
2018-12-03T12:44:55.128Z,3.77
2018-12-03T12:47:23.473Z,3.50
2018-12-03T12:49:49.848Z,4.63
2018-12-03T12:52:16.050Z,4.20
2018-12-03T12:54:44.609Z,5.70
2018-12-03T12:57:10.936Z,5.03
2018-12-03T12:59:37.303Z,4.80
2018-12-03T13:02:07.833Z,3.30
2018-12-03T13:04:34.160Z,4.13
2018-12-03T13:07:00.378Z,3.70
2018-12-03T13:09:31.413Z,3.93
2018-12-03T13:11:57.572Z,3.40
2018-12-03T13:14:27.059Z,4.20
2018-12-03T13:16:53.271Z,4.40
2018-12-03T13:19:19.510Z,3.57
2018-12-03T13:21:46.723Z,4.13
2018-12-03T13:24:13.043Z,4.00
2018-12-03T13:26:39.473Z,3.87
2018-12-03T13:29:06.165Z,4.57
2018-12-03T13:31:32.458Z,4.00
2018-12-03T13:33:58.859Z,4.60
2018-12-03T13:36:25.049Z,5.27
2018-12-03T13:38:51.223Z,4.97
2018-12-03T13:41:18.735Z,3.60
2018-12-03T13:43:44.992Z,4.90
2018-12-03T13:46:11.190Z,5.17
2018-12-03T13:48:37.642Z,6.10
2018-12-03T13:51:05.196Z,4.60
2018-12-03T13:53:31.419Z,5.37
2018-12-03T13:55:57.447Z,5.10
2018-12-03T13:58:23.734Z,4.93
2018-12-03T14:00:49.950Z,3.90
2018-12-03T14:03:26.986Z,6.50
2018-12-03T14:05:58.781Z,7.83
2018-12-03T14:08:25.269Z,5.17
2018-12-03T14:10:51.990Z,4.67
2018-12-03T14:13:19.193Z,5.50
2018-12-03T14:15:46.849Z,7.23
2018-12-03T14:18:13.293Z,8.80
2018-12-03T14:20:39.752Z,4.87
2018-12-03T14:23:06.224Z,5.97
2018-12-03T14:25:32.563Z,6.00
2018-12-03T14:27:58.818Z,4.17
2018-12-03T14:30:25.011Z,3.90
2018-12-03T14:32:51.184Z,4.50
2018-12-03T14:35:22.133Z,5.50
2018-12-03T14:37:48.361Z,5.60
2018-12-03T14:40:14.639Z,4.30
2018-12-03T14:42:42.130Z,5.80
2018-12-03T14:45:08.501Z,6.20
2018-12-03T14:47:34.730Z,6.30
2018-12-03T14:50:01.293Z,5.53
2018-12-03T14:52:29.500Z,5.70
2018-12-03T14:54:55.638Z,5.40
2018-12-03T14:57:21.757Z,4.77
2018-12-03T14:59:49.916Z,4.13
2018-12-03T15:02:16.297Z,4.63
2018-12-03T15:04:42.316Z,3.87
2018-12-03T15:07:08.626Z,4.53
2018-12-03T15:09:34.849Z,4.93
2018-12-03T15:12:01.046Z,4.20
2018-12-03T15:14:27.235Z,4.47
2018-12-03T15:16:53.463Z,4.50
2018-12-03T15:19:19.457Z,5.47
2018-12-03T15:21:45.696Z,4.40
2018-12-03T15:24:13.502Z,5.53
2018-12-03T15:26:39.988Z,7.47
2018-12-03T15:29:07.289Z,7.87
2018-12-03T15:31:51.837Z,6.80
2018-12-03T15:34:18.064Z,4.20
2018-12-03T15:36:44.188Z,4.90
2018-12-03T15:39:10.244Z,5.03
2018-12-03T15:41:36.471Z,5.93
2018-12-03T15:44:03.192Z,4.60
2018-12-03T15:46:30.083Z,4.40
2018-12-03T15:48:57.439Z,4.80
2018-12-03T15:51:23.657Z,4.80
2018-12-03T15:53:54.317Z,5.57
2018-12-03T15:56:21.838Z,13.83
2018-12-03T15:58:48.161Z,5.03
2018-12-03T16:01:15.733Z,5.13
2018-12-03T16:03:52.163Z,4.70
2018-12-03T16:06:30.011Z,6.67
2018-12-03T16:08:57.895Z,7.90
2018-12-03T16:11:32.020Z,4.40
2018-12-03T16:13:58.386Z,6.53
2018-12-03T16:16:25.412Z,5.73
2018-12-03T16:18:53.836Z,6.57
2018-12-03T16:21:20.180Z,5.80
2018-12-03T16:23:46.549Z,5.87
2018-12-03T16:26:12.700Z,6.77
2018-12-03T16:28:42.727Z,5.87
2018-12-03T16:31:09.838Z,8.60
2018-12-03T16:33:36.000Z,9.63
2018-12-03T16:36:09.614Z,4.80
2018-12-03T16:38:39.081Z,5.50
2018-12-03T16:41:06.090Z,4.63
2018-12-03T16:43:32.368Z,6.47
2018-12-03T16:46:00.120Z,6.30
2018-12-03T16:48:26.835Z,6.00
2018-12-03T16:50:58.284Z,6.57
2018-12-03T16:53:26.378Z,9.73
2018-12-03T16:55:52.598Z,5.83
2018-12-03T16:58:18.760Z,8.30
2018-12-03T17:00:45.121Z,9.43
2018-12-03T17:03:11.197Z,8.90
2018-12-03T17:05:39.301Z,12.50
2018-12-03T17:08:05.532Z,11.00
2018-12-03T17:10:31.782Z,7.80
2018-12-03T17:12:59.111Z,7.60
2018-12-03T17:15:25.787Z,9.70
2018-12-03T17:17:52.094Z,9.00
2018-12-03T17:20:19.491Z,9.97
2018-12-03T17:22:45.604Z,7.73
2018-12-03T17:25:12.002Z,8.27
2018-12-03T17:27:38.337Z,12.03
2018-12-03T17:30:05.886Z,9.30
2018-12-03T17:32:32.839Z,10.23
2018-12-03T17:37:54.715Z,12.00
2018-12-03T17:40:20.968Z,8.83
2018-12-03T17:42:47.310Z,9.17
2018-12-03T17:45:13.635Z,8.77
2018-12-03T17:47:40.027Z,10.50
2018-12-03T17:50:11.172Z,9.73
2018-12-03T17:52:37.400Z,10.30
2018-12-03T17:55:03.797Z,13.47
2018-12-03T17:57:30.070Z,9.43
2018-12-03T17:59:56.378Z,9.73
2018-12-03T18:02:22.622Z,9.47
2018-12-03T18:04:50.911Z,8.83
2018-12-03T18:07:17.235Z,6.93
2018-12-03T18:09:43.554Z,6.00
2018-12-03T18:12:10.312Z,6.70
2018-12-03T18:14:36.822Z,6.10
2018-12-03T18:17:03.157Z,5.27
2018-12-03T18:19:30.794Z,8.77
2018-12-03T18:21:57.159Z,5.37
2018-12-03T18:24:23.420Z,6.10
2018-12-03T18:26:49.674Z,7.50
2018-12-03T18:29:17.182Z,6.60
2018-12-03T18:31:44.587Z,4.93
2018-12-03T18:34:12.333Z,5.63
2018-12-03T18:36:38.478Z,5.30
2018-12-03T18:39:05.981Z,6.50
2018-12-03T18:41:34.899Z,5.40
2018-12-03T18:44:02.603Z,5.43
2018-12-03T18:46:32.046Z,6.33
2018-12-03T18:48:58.272Z,5.57
2018-12-03T18:51:28.236Z,5.70
2018-12-03T18:53:55.727Z,6.13
2018-12-03T18:56:32.116Z,5.50
2018-12-03T18:58:58.381Z,6.87
2018-12-03T19:01:24.607Z,7.03
2018-12-03T19:03:52.623Z,6.60
2018-12-03T19:06:20.079Z,8.97
2018-12-03T19:08:46.360Z,7.87
2018-12-03T19:11:13.685Z,7.40
2018-12-03T19:13:41.111Z,8.90
2018-12-03T19:19:01.356Z,10.20
2018-12-03T19:21:27.747Z,10.03
2018-12-03T19:26:27.112Z,8.90
2018-12-03T19:28:53.297Z,9.47
2018-12-03T19:31:19.491Z,9.30
2018-12-03T19:33:46.081Z,9.87
2018-12-03T19:36:12.248Z,9.60
2018-12-03T19:38:39.207Z,10.47
2018-12-03T19:41:05.591Z,10.37
2018-12-03T19:43:31.913Z,11.00
2018-12-03T19:46:00.610Z,10.77
2018-12-03T19:48:27.402Z,12.03
2018-12-03T19:50:55.855Z,10.40
2018-12-03T19:53:22.562Z,10.70
2018-12-03T19:55:49.079Z,13.30
2018-12-03T19:58:15.326Z,12.10
2018-12-03T20:00:42.664Z,11.00
2018-12-03T20:03:12.099Z,14.30
2018-12-03T20:05:42.265Z,10.37
2018-12-03T20:08:09.638Z,12.33
2018-12-03T20:10:37.025Z,9.70
2018-12-03T20:13:03.354Z,9.70
2018-12-03T20:15:29.720Z,11.27
2018-12-03T20:17:55.984Z,8.33
2018-12-03T20:20:22.859Z,10.20
2018-12-03T20:22:51.144Z,9.37
2018-12-03T20:25:17.939Z,9.57
2018-12-03T20:27:44.999Z,11.37
2018-12-03T20:30:16.856Z,9.83
2018-12-03T20:32:44.849Z,7.70
2018-12-03T20:35:11.390Z,8.83
2018-12-03T20:37:38.093Z,10.30
2018-12-03T20:40:11.238Z,8.17
2018-12-03T20:42:37.521Z,7.90
2018-12-03T20:45:07.879Z,7.53
2018-12-03T20:47:34.468Z,9.43
2018-12-03T20:50:01.970Z,8.30
2018-12-03T20:52:28.981Z,11.60
2018-12-03T20:54:55.199Z,11.20
2018-12-03T20:57:22.224Z,9.53
2018-12-03T20:59:49.621Z,9.50
2018-12-03T21:02:16.350Z,35.70
2018-12-03T21:04:42.796Z,11.20
2018-12-03T21:07:10.179Z,9.13
2018-12-03T21:09:36.430Z,8.00
2018-12-03T21:12:04.826Z,9.60
2018-12-03T21:14:31.273Z,9.60
2018-12-03T21:17:02.327Z,6.57
2018-12-03T21:19:28.412Z,7.90
2018-12-03T21:21:54.591Z,7.13
2018-12-03T21:24:21.463Z,6.10
2018-12-03T21:26:49.048Z,9.10
2018-12-03T21:29:15.505Z,8.40
2018-12-03T21:31:42.551Z,6.47
2018-12-03T21:34:10.196Z,6.23
2018-12-03T21:36:36.269Z,6.03
2018-12-03T21:39:05.879Z,6.47
2018-12-03T21:41:32.500Z,6.20
2018-12-03T21:43:58.692Z,6.63
2018-12-03T21:46:25.046Z,6.17
2018-12-03T21:48:51.243Z,6.33
2018-12-03T21:51:18.442Z,5.90
2018-12-03T21:53:46.498Z,7.10
2018-12-03T21:56:14.901Z,5.13
2018-12-03T21:58:41.407Z,5.07
2018-12-03T22:01:07.658Z,6.13
2018-12-03T22:03:33.778Z,6.20
2018-12-03T22:08:34.288Z,7.33
2018-12-03T22:11:01.695Z,5.60
2018-12-03T22:13:29.231Z,5.33
2018-12-03T22:15:55.953Z,7.40
2018-12-03T22:18:22.367Z,4.73
2018-12-03T22:20:48.598Z,7.37
2018-12-03T22:23:15.042Z,6.57
2018-12-03T22:25:41.261Z,5.67
2018-12-03T22:28:08.359Z,7.87
2018-12-03T22:30:34.558Z,5.23
2018-12-03T22:33:00.848Z,6.83
2018-12-03T22:35:28.255Z,6.00
2018-12-03T22:37:55.231Z,5.50
2018-12-03T22:40:21.388Z,5.97
2018-12-03T22:42:48.163Z,7.10
2018-12-03T22:45:14.465Z,7.13
2018-12-03T22:47:40.754Z,7.10
2018-12-03T22:50:07.076Z,7.90
2018-12-03T22:52:33.408Z,7.70
2018-12-03T22:55:00.013Z,7.50
2018-12-03T22:57:28.507Z,6.90
2018-12-03T22:59:55.288Z,4.83
2018-12-03T23:02:21.530Z,6.67
2018-12-03T23:04:47.958Z,7.50
2018-12-03T23:07:14.413Z,9.73
2018-12-03T23:09:41.760Z,7.10
2018-12-03T23:12:08.776Z,5.70
2018-12-03T23:14:35.097Z,5.33
2018-12-03T23:17:01.339Z,6.03
2018-12-03T23:19:29.855Z,9.00
2018-12-03T23:21:56.347Z,7.80
2018-12-03T23:24:24.520Z,8.07
2018-12-03T23:26:51.087Z,5.97
2018-12-03T23:29:18.479Z,6.60
2018-12-03T23:31:45.632Z,6.17
2018-12-03T23:34:12.352Z,8.83
2018-12-03T23:36:38.701Z,12.80
2018-12-03T23:39:05.550Z,7.97
2018-12-03T23:41:31.859Z,6.80
2018-12-03T23:43:58.182Z,7.93
2018-12-03T23:46:24.861Z,7.47
2018-12-03T23:48:51.187Z,5.23
2018-12-03T23:51:18.250Z,6.70
2018-12-03T23:53:45.891Z,7.53
2018-12-03T23:56:12.275Z,5.40
2018-12-03T23:58:38.828Z,13.07
